createdAt,value
2023-07-01T08:01:12.102Z,94636.00
2023-07-01T08:02:12.106Z,94640.00
2023-07-01T08:03:12.155Z,94642.00
2023-07-01T08:04:12.217Z,94642.00
2023-07-01T08:05:12.229Z,94644.00
2023-07-01T08:06:12.183Z,94640.00
2023-07-01T08:07:12.245Z,94644.00
2023-07-01T08:08:12.272Z,94642.00
2023-07-01T08:09:12.296Z,94642.00
2023-07-01T08:10:12.253Z,94646.00
2023-07-01T08:11:12.289Z,94648.00
2023-07-01T08:12:12.325Z,94648.00
2023-07-01T08:13:12.415Z,94646.00
2023-07-01T08:14:12.451Z,94646.00
2023-07-01T08:15:12.482Z,94648.00
2023-07-01T08:16:12.617Z,94646.00
2023-07-01T08:17:12.610Z,94646.00
2023-07-01T08:18:12.646Z,94650.00
2023-07-01T08:19:12.706Z,94650.00
2023-07-01T08:20:12.748Z,94650.00
2023-07-01T08:21:12.908Z,94658.00
2023-07-01T08:22:12.820Z,94656.00
2023-07-01T08:23:12.873Z,94654.00
2023-07-01T08:24:12.946Z,94656.00
2023-07-01T08:25:12.998Z,94658.00
2023-07-01T08:26:13.063Z,94654.00
2023-07-01T08:27:13.081Z,94656.00
2023-07-01T08:28:13.128Z,94658.00
2023-07-01T08:29:13.174Z,94662.00
2023-07-01T08:30:13.218Z,94660.00
2023-07-01T08:31:13.323Z,94662.00
2023-07-01T08:32:13.315Z,94660.00
2023-07-01T08:33:13.356Z,94660.00
2023-07-01T08:34:13.403Z,94658.00
2023-07-01T08:35:13.446Z,94660.00
2023-07-01T08:36:13.473Z,94660.00
2023-07-01T08:37:13.548Z,94660.00
2023-07-01T08:38:13.584Z,94660.00
2023-07-01T08:39:13.599Z,94662.00
2023-07-01T08:40:13.670Z,94662.00
2023-07-01T08:41:13.774Z,94662.00
2023-07-01T08:42:13.741Z,94662.00
2023-07-01T08:43:13.807Z,94667.00
2023-07-01T08:44:13.817Z,94665.00
2023-07-01T08:45:13.896Z,94665.00
2023-07-01T08:46:13.949Z,94665.00
2023-07-01T08:47:13.948Z,94663.00
2023-07-01T08:48:13.999Z,94662.00
2023-07-01T08:49:14.024Z,94660.00
2023-07-01T08:50:14.063Z,94660.00
2023-07-01T08:51:14.113Z,94660.00
2023-07-01T08:52:14.148Z,94658.00
2023-07-01T08:53:14.191Z,94658.00
2023-07-01T08:54:14.245Z,94660.00
2023-07-01T08:55:14.276Z,94660.00
2023-07-01T08:56:14.309Z,94658.00
2023-07-01T08:57:14.366Z,94658.00
2023-07-01T08:58:14.423Z,94658.00
2023-07-01T08:59:14.457Z,94662.00
2023-07-01T09:00:14.473Z,94656.00
2023-07-01T09:01:14.549Z,94660.00
2023-07-01T09:02:14.652Z,94658.00
2023-07-01T09:03:14.583Z,94656.00
2023-07-01T09:04:14.648Z,94658.00
2023-07-01T09:05:14.682Z,94658.00
2023-07-01T09:06:14.717Z,94658.00
2023-07-01T09:07:14.755Z,94660.00
2023-07-01T09:08:14.792Z,94660.00
2023-07-01T09:09:14.808Z,94660.00
2023-07-01T09:10:14.819Z,94660.00
2023-07-01T09:11:14.898Z,94662.00
2023-07-01T09:12:14.910Z,94663.00
2023-07-01T09:13:14.986Z,94663.00
2023-07-01T09:14:14.993Z,94662.00
2023-07-01T09:15:15.036Z,94663.00
2023-07-01T09:16:15.083Z,94663.00
2023-07-01T09:17:15.123Z,94663.00
2023-07-01T09:18:15.112Z,94663.00
2023-07-01T09:19:15.164Z,94660.00
2023-07-01T09:20:15.201Z,94665.00
2023-07-01T09:21:15.283Z,94663.00
2023-07-01T09:22:15.280Z,94667.00
2023-07-01T09:23:15.306Z,94663.00
2023-07-01T09:24:15.354Z,94662.00
2023-07-01T09:25:15.435Z,94665.00
2023-07-01T09:26:15.427Z,94663.00
2023-07-01T09:27:15.462Z,94663.00
2023-07-01T09:28:15.521Z,94665.00
2023-07-01T09:29:15.530Z,94662.00
2023-07-01T09:30:15.625Z,94663.00
2023-07-01T09:31:15.655Z,94660.00
2023-07-01T09:32:15.651Z,94662.00
2023-07-01T09:33:15.671Z,94662.00
2023-07-01T09:34:15.735Z,94660.00
2023-07-01T09:35:15.752Z,94662.00
2023-07-01T09:36:15.793Z,94662.00
2023-07-01T09:37:15.813Z,94662.00
2023-07-01T09:38:15.902Z,94662.00
2023-07-01T09:39:15.906Z,94663.00
2023-07-01T09:40:15.959Z,94663.00
2023-07-01T09:41:16.059Z,94665.00
2023-07-01T09:42:16.030Z,94663.00
2023-07-01T09:43:16.024Z,94663.00
2023-07-01T09:44:16.088Z,94665.00
2023-07-01T09:45:16.103Z,94665.00
2023-07-01T09:46:16.253Z,94665.00
2023-07-01T09:47:16.172Z,94663.00
2023-07-01T09:48:16.237Z,94665.00
2023-07-01T09:49:16.227Z,94665.00
2023-07-01T09:50:16.284Z,94663.00
2023-07-01T09:51:16.287Z,94662.00
2023-07-01T09:52:16.359Z,94662.00
2023-07-01T09:53:16.367Z,94663.00
2023-07-01T09:54:16.462Z,94662.00
2023-07-01T09:55:16.468Z,94663.00
2023-07-01T09:56:16.511Z,94660.00
2023-07-01T09:57:16.557Z,94658.00
2023-07-01T09:58:16.569Z,94656.00
2023-07-01T09:59:16.592Z,94658.00
2023-07-01T10:00:16.619Z,94658.00
2023-07-01T10:01:16.716Z,94656.00
2023-07-01T10:02:16.762Z,94656.00
2023-07-01T10:03:16.998Z,94658.00
2023-07-01T10:04:16.817Z,94656.00
2023-07-01T10:05:16.802Z,94652.00
2023-07-01T10:06:16.833Z,94652.00
2023-07-01T10:07:16.859Z,94650.00
2023-07-01T10:08:16.911Z,94654.00
2023-07-01T10:09:16.933Z,94650.00
2023-07-01T10:10:16.978Z,94650.00
2023-07-01T10:11:17.006Z,94650.00
2023-07-01T10:12:17.001Z,94648.00
2023-07-01T10:13:17.068Z,94648.00
2023-07-01T10:14:17.124Z,94644.00
2023-07-01T10:15:17.160Z,94640.00
2023-07-01T10:16:17.170Z,94640.00
2023-07-01T10:17:17.320Z,94640.00
2023-07-01T10:18:17.272Z,94640.00
2023-07-01T10:19:17.304Z,94638.00
2023-07-01T10:20:17.324Z,94640.00
2023-07-01T10:21:17.337Z,94640.00
2023-07-01T10:22:17.392Z,94638.00
2023-07-01T10:23:17.372Z,94638.00
2023-07-01T10:24:17.429Z,94636.00
2023-07-01T10:25:17.447Z,94636.00
2023-07-01T10:26:17.488Z,94634.00
2023-07-01T10:27:17.492Z,94632.00
2023-07-01T10:28:17.534Z,94632.00
2023-07-01T10:29:17.593Z,94624.00
2023-07-01T10:30:17.590Z,94624.00
2023-07-01T10:31:17.670Z,94632.00
2023-07-01T10:32:17.697Z,94622.00
2023-07-01T10:33:17.770Z,94624.00
2023-07-01T10:34:17.816Z,94624.00
2023-07-01T10:35:17.790Z,94622.00
2023-07-01T10:36:17.802Z,94620.00
2023-07-01T10:37:17.889Z,94617.00
2023-07-01T10:38:17.857Z,94618.00
2023-07-01T10:39:17.931Z,94617.00
2023-07-01T10:40:17.887Z,94618.00
2023-07-01T10:41:17.932Z,94615.00
2023-07-01T10:42:17.945Z,94617.00
2023-07-01T10:43:17.976Z,94613.00
2023-07-01T10:44:18.019Z,94615.00
2023-07-01T10:45:18.036Z,94613.00
2023-07-01T10:46:18.032Z,94615.00
2023-07-01T10:47:18.234Z,94611.00
2023-07-01T10:48:18.102Z,94611.00
2023-07-01T10:49:18.107Z,94607.00
2023-07-01T10:50:18.123Z,94607.00
2023-07-01T10:51:18.144Z,94605.00
2023-07-01T10:52:18.215Z,94603.00
2023-07-01T10:53:18.206Z,94603.00
2023-07-01T10:54:18.217Z,94603.00
2023-07-01T10:55:18.235Z,94603.00
2023-07-01T10:56:18.231Z,94603.00
2023-07-01T10:57:18.383Z,94601.00
2023-07-01T10:58:18.252Z,94607.00
2023-07-01T10:59:18.375Z,94603.00
2023-07-01T11:00:18.297Z,94601.00
2023-07-01T11:01:18.363Z,94603.00
2023-07-01T11:02:18.460Z,94603.00
2023-07-01T11:03:18.398Z,94601.00
2023-07-01T11:04:18.448Z,94597.00
2023-07-01T11:05:18.443Z,94597.00
2023-07-01T11:06:18.367Z,94597.00
2023-07-01T11:07:18.412Z,94597.00
2023-07-01T11:08:18.417Z,94595.00
2023-07-01T11:09:18.416Z,94591.00
2023-07-01T11:10:18.446Z,94591.00
2023-07-01T11:11:18.460Z,94589.00
2023-07-01T11:12:18.482Z,94589.00
2023-07-01T11:13:18.450Z,94587.00
2023-07-01T11:14:18.480Z,94589.00
2023-07-01T11:15:18.491Z,94587.00
2023-07-01T11:16:18.517Z,94587.00
2023-07-01T11:17:18.549Z,94583.00
2023-07-01T11:18:18.479Z,94585.00
2023-07-01T11:19:18.498Z,94581.00
2023-07-01T11:20:18.510Z,94583.00
2023-07-01T11:21:18.496Z,94581.00
2023-07-01T11:22:18.506Z,94579.00
2023-07-01T11:23:18.514Z,94581.00
2023-07-01T11:24:18.525Z,94577.00
2023-07-01T11:25:18.505Z,94573.00
2023-07-01T11:26:18.523Z,94575.00
2023-07-01T11:27:18.596Z,94575.00
2023-07-01T11:28:18.546Z,94577.00
2023-07-01T11:29:18.596Z,94575.00
2023-07-01T11:30:18.579Z,94573.00
2023-07-01T11:31:18.595Z,94570.00
2023-07-01T11:32:18.591Z,94571.00
2023-07-01T11:33:18.569Z,94570.00
2023-07-01T11:34:18.667Z,94570.00
2023-07-01T11:35:18.579Z,94566.00
2023-07-01T11:36:18.600Z,94566.00
2023-07-01T11:37:18.622Z,94566.00
2023-07-01T11:38:18.580Z,94564.00
2023-07-01T11:39:18.586Z,94564.00
2023-07-01T11:40:18.606Z,94564.00
2023-07-01T11:41:18.606Z,94564.00
2023-07-01T11:42:18.613Z,94562.00
2023-07-01T11:43:18.591Z,94560.00
2023-07-01T11:44:18.617Z,94558.00
2023-07-01T11:45:18.609Z,94556.00
2023-07-01T11:46:18.669Z,94556.00
2023-07-01T11:47:18.633Z,94558.00
2023-07-01T11:48:18.607Z,94554.00
2023-07-01T11:49:18.620Z,94552.00
2023-07-01T11:50:18.625Z,94552.00
2023-07-01T11:51:18.644Z,94554.00
2023-07-01T11:52:18.627Z,94554.00
2023-07-01T11:53:18.629Z,94560.00
2023-07-01T11:54:18.601Z,94554.00
2023-07-01T11:55:18.620Z,94558.00
2023-07-01T11:56:18.603Z,94558.00
2023-07-01T11:57:18.601Z,94558.00
2023-07-01T11:58:18.615Z,94556.00
2023-07-01T11:59:18.584Z,94552.00
2023-07-01T12:00:18.592Z,94552.00
2023-07-01T12:01:18.608Z,94552.00
2023-07-01T12:02:18.695Z,94548.00
2023-07-01T12:03:18.612Z,94550.00
2023-07-01T12:04:18.652Z,94554.00
2023-07-01T12:05:18.579Z,94550.00
2023-07-01T12:06:18.585Z,94548.00
2023-07-01T12:07:18.586Z,94548.00
2023-07-01T12:08:18.579Z,94542.00
2023-07-01T12:09:18.566Z,94542.00
2023-07-01T12:10:18.774Z,94544.00
2023-07-01T12:11:18.561Z,94538.00
2023-07-01T12:12:18.593Z,94540.00
2023-07-01T12:13:18.565Z,94538.00
2023-07-01T12:14:18.562Z,94538.00
2023-07-01T12:15:18.553Z,94534.00
2023-07-01T12:16:18.585Z,94530.00
2023-07-01T12:17:18.603Z,94532.00
2023-07-01T12:18:18.622Z,94534.00
2023-07-01T12:19:18.650Z,94536.00
2023-07-01T12:20:18.644Z,94536.00
2023-07-01T12:21:18.754Z,94536.00
2023-07-01T12:22:18.705Z,94534.00
2023-07-01T12:23:18.788Z,94534.00
2023-07-01T12:24:18.794Z,94534.00
2023-07-01T12:25:18.869Z,94536.00
2023-07-01T12:26:18.857Z,94536.00
2023-07-01T12:27:18.906Z,94536.00
2023-07-01T12:28:18.924Z,94530.00
2023-07-01T12:29:18.948Z,94530.00
2023-07-01T12:30:19.016Z,94530.00
2023-07-01T12:31:19.140Z,94530.00
2023-07-01T12:32:19.103Z,94528.00
2023-07-01T12:33:19.160Z,94526.00
2023-07-01T12:34:19.214Z,94530.00
2023-07-01T12:35:19.265Z,94530.00
2023-07-01T12:36:19.326Z,94526.00
2023-07-01T12:37:19.391Z,94524.00
2023-07-01T12:38:19.429Z,94522.00
2023-07-01T12:39:19.516Z,94522.00
2023-07-01T12:40:19.557Z,94522.00
2023-07-01T12:41:19.747Z,94518.00
2023-07-01T12:42:19.705Z,94520.00
2023-07-01T12:43:19.708Z,94518.00
2023-07-01T12:44:19.768Z,94520.00
2023-07-01T12:45:19.858Z,94518.00
2023-07-01T12:46:19.945Z,94518.00
2023-07-01T12:47:20.045Z,94515.00
2023-07-01T12:48:20.034Z,94511.00
2023-07-01T12:49:20.061Z,94507.00
2023-07-01T12:50:20.170Z,94505.00
2023-07-01T12:51:20.165Z,94505.00
2023-07-01T12:52:20.274Z,94501.00
2023-07-01T12:53:20.304Z,94505.00
2023-07-01T12:54:20.384Z,94509.00
2023-07-01T12:55:20.427Z,94505.00
2023-07-01T12:56:20.547Z,94505.00
2023-07-01T12:57:20.577Z,94505.00
2023-07-01T12:58:20.610Z,94503.00
2023-07-01T12:59:20.689Z,94501.00
2023-07-01T13:00:20.738Z,94501.00
